Stations météo

Publicité
Kinbrace, Grande-Bretagne (99016): Température de l'air & dewpoint: 11.12.2018 12:00:00 - 17.12.2018 12:00:00 (GMT)Kinbrace, Grande-Bretagne (99016): Vitesse du vent & gusts: 11.12.2018 12:00:00 - 17.12.2018 12:00:00 (GMT)Kinbrace, Grande-Bretagne (99016): Direction du vent: 11.12.2018 12:00:00 - 17.12.2018 12:00:00 (GMT)Kinbrace, Grande-Bretagne (99016): Quantités de précipitations: 11.12.2018 12:00:00 - 17.12.2018 12:00:00 (GMT)
Date & Time tt [°C] td [°C] ff [km/h] ff [knt] fx [km/h] fx [knt] dd rr [mm]
17.12.2018 12:00:00 5,5 2,6 16 9 - - SE 0,0
17.12.2018 11:00:00 4,5 2,2 18 10 - - SE 0,0
17.12.2018 10:00:00 1,8 1,2 2 1 - - SSW 0,0
17.12.2018 09:00:00 1,9 0,6 8 4 - - SSE 0,0
17.12.2018 08:00:00 1,8 0,4 9 5 - - ESE 0,0
17.12.2018 07:00:00 2,5 1,1 8 4 - - SSE 0,0
17.12.2018 06:00:00 2,9 1,1 15 8 - - ESE 0,0
17.12.2018 05:00:00 3,8 1,5 18 10 - - ESE 0,0
17.12.2018 04:00:00 3,9 2,0 21 11 - - ESE 0,0
17.12.2018 03:00:00 3,9 1,8 18 10 - - ESE 0,0
17.12.2018 02:00:00 3,9 1,6 22 12 - - ESE 0,0
17.12.2018 01:00:00 4,2 1,6 18 10 - - SE 0,0
17.12.2018 00:00:00 4,1 1,5 22 12 - - SE 0,0
16.12.2018 23:00:00 4,3 1,6 24 13 - - SE 0,0
16.12.2018 22:00:00 3,8 1,4 22 12 - - ESE 0,0
16.12.2018 21:00:00 3,5 1,1 26 14 - - SE 0,0
16.12.2018 20:00:00 4,4 1,6 21 11 - - SE 0,0
16.12.2018 19:00:00 3,9 1,8 21 11 - - SE 0,0
16.12.2018 18:00:00 3,9 1,1 18 10 - - SE 0,0
16.12.2018 17:00:00 3,2 0,8 13 7 - - SSE 0,0
16.12.2018 16:00:00 4,0 1,4 21 11 - - SE 0,0
16.12.2018 15:00:00 3,6 1,2 5 3 - - SSW 0,0
16.12.2018 14:00:00 4,8 1,8 15 8 - - SSE 0,0
16.12.2018 13:00:00 5,5 2,4 15 8 - - SSE 0,0
16.12.2018 12:00:00 5,9 3,2 21 11 - - WSW 0,0
16.12.2018 11:00:00 4,7 2,8 13 7 - - W 0,0
16.12.2018 10:00:00 3,6 1,7 11 6 - - W 0,0
16.12.2018 09:00:00 3,6 1,9 15 8 - - W 0,2
16.12.2018 08:00:00 3,0 1,2 13 7 - - WSW 0,0
16.12.2018 07:00:00 2,9 1,4 4 2 - - S 0,0
16.12.2018 06:00:00 3,9 1,7 24 13 - - SE 0,0
16.12.2018 05:00:00 4,9 2,9 16 9 54 29 SSE 0,0
16.12.2018 04:00:00 5,2 3,8 35 19 54 29 SE 0,0
16.12.2018 03:00:00 4,7 3,1 34 18 59 32 SSE 0,0
16.12.2018 02:00:00 3,9 2,5 39 21 67 36 SE 0,2
16.12.2018 01:00:00 3,5 2,5 54 29 81 44 SE 1,4
16.12.2018 00:00:00 3,2 2,3 42 23 65 35 SSE 2,2
15.12.2018 23:00:00 2,7 1,9 50 27 80 43 SSE 2,0
15.12.2018 22:00:00 2,6 1,8 54 29 81 44 SE 2,2
15.12.2018 21:00:00 3,1 2,3 50 27 80 43 SSE 2,4
15.12.2018 20:00:00 3,2 2,4 55 30 89 48 SE 2,8
15.12.2018 19:00:00 3,5 2,4 52 28 85 46 SSE 3,8
15.12.2018 18:00:00 2,8 1,6 48 26 74 40 SE 2,2
15.12.2018 17:00:00 2,5 0,8 42 23 80 43 SE 0,8
15.12.2018 16:00:00 4,4 0,0 50 27 87 47 SSE 0,0
15.12.2018 15:00:00 3,9 -0,6 59 32 87 47 SSE 0,0
15.12.2018 14:00:00 3,9 -1,5 50 27 80 43 SSE 0,0
15.12.2018 13:00:00 3,7 -1,7 37 20 70 38 SE 0,0
15.12.2018 12:00:00 3,6 -2,1 35 19 65 35 SSE 0,0
15.12.2018 11:00:00 3,9 -3,0 46 25 67 36 SSE 0,0
15.12.2018 10:00:00 3,9 -3,4 31 17 63 34 SSE 0,0
15.12.2018 09:00:00 3,7 -3,7 46 25 61 33 SSE 0,0
15.12.2018 08:00:00 3,5 -4,0 28 15 63 34 SE 0,0
15.12.2018 07:00:00 3,6 -4,2 54 29 76 41 SSE 0,0
15.12.2018 06:00:00 3,2 -3,8 39 21 55 30 SSE 0,0
15.12.2018 05:00:00 2,9 -3,6 35 19 55 30 SE 0,0
15.12.2018 04:00:00 3,0 -3,6 29 16 46 25 SE 0,0
15.12.2018 03:00:00 2,7 -3,2 29 16 52 28 SE 0,0
15.12.2018 02:00:00 2,9 -3,6 34 18 48 26 SE 0,0
15.12.2018 01:00:00 2,7 -3,7 22 12 46 25 SE 0,0
15.12.2018 00:00:00 3,0 -4,3 29 16 57 31 SE 0,0
14.12.2018 23:00:00 2,9 -4,0 26 14 - - SSE 0,0
14.12.2018 22:00:00 3,1 -4,1 26 14 - - SE 0,0
14.12.2018 21:00:00 2,9 -3,7 29 16 50 27 SSE 0,0
14.12.2018 20:00:00 2,9 -3,6 35 19 52 28 SSE 0,0
14.12.2018 19:00:00 2,9 -3,3 39 21 59 32 SSE 0,0
14.12.2018 18:00:00 3,2 -3,0 22 12 54 29 SE 0,0
14.12.2018 17:00:00 3,1 -2,9 28 15 - - SE 0,0
14.12.2018 16:00:00 1,8 -3,1 26 14 - - SSE 0,0
14.12.2018 15:00:00 2,9 -2,9 22 12 - - SSE 0,0
14.12.2018 14:00:00 3,9 -2,9 26 14 - - SSE 0,0
14.12.2018 13:00:00 4,3 -2,4 26 14 - - SSE 0,0
14.12.2018 12:00:00 3,4 -2,5 28 15 - - SSE 0,0
14.12.2018 11:00:00 3,0 -2,7 29 16 - - SSE 0,0
14.12.2018 10:00:00 2,0 -2,2 24 13 - - SSE 0,0
14.12.2018 09:00:00 1,5 -2,1 22 12 - - SSE 0,0
14.12.2018 08:00:00 1,9 -2,1 24 13 - - SSE 0,0
14.12.2018 07:00:00 2,1 -2,1 22 12 - - SSE 0,0
14.12.2018 06:00:00 2,8 -2,4 26 14 - - SE 0,0
14.12.2018 05:00:00 2,7 -1,8 24 13 - - SSE 0,0
14.12.2018 04:00:00 3,4 -1,6 29 16 48 26 SSE 0,0
14.12.2018 03:00:00 3,3 -1,2 26 14 57 31 SSE 0,0
14.12.2018 02:00:00 4,0 -0,9 35 19 59 32 SSE 0,0
14.12.2018 01:00:00 4,1 -1,0 46 25 63 34 SSE 0,0
14.12.2018 00:00:00 4,2 -1,2 44 24 57 31 SSE 0,0
13.12.2018 23:00:00 3,5 -1,2 24 13 - - SSE 0,0
13.12.2018 22:00:00 4,1 -1,0 31 17 48 26 SSE 0,0
13.12.2018 21:00:00 4,1 -0,8 34 18 55 30 SSE 0,0
13.12.2018 20:00:00 4,4 -1,1 41 22 55 30 SSE 0,0
13.12.2018 19:00:00 4,4 -1,2 35 19 59 32 SSE 0,0
13.12.2018 18:00:00 4,3 -1,4 42 23 68 37 SSE 0,0
13.12.2018 17:00:00 4,5 -1,3 50 27 65 35 SSE 0,0
13.12.2018 16:00:00 4,7 -1,3 44 24 63 34 SSE 0,0
13.12.2018 15:00:00 5,0 -1,1 39 21 76 41 SSE 0,0
13.12.2018 14:00:00 5,5 -0,8 52 28 78 42 SSE 0,0
13.12.2018 13:00:00 5,4 -0,1 52 28 78 42 SSE 0,0
13.12.2018 12:00:00 5,2 0,8 42 23 67 36 SSE 0,0
13.12.2018 11:00:00 4,8 0,5 42 23 67 36 SSE 0,0
13.12.2018 10:00:00 5,0 0,1 37 20 67 36 SSE 0,0
13.12.2018 09:00:00 4,6 1,0 48 26 76 41 SSE 0,0
13.12.2018 08:00:00 4,7 0,2 52 28 81 44 SSE 0,0
13.12.2018 07:00:00 4,8 0,0 54 29 78 42 SSE 0,0
13.12.2018 06:00:00 4,4 0,2 50 27 81 44 SSE 0,0
13.12.2018 05:00:00 4,7 -0,2 57 31 76 41 SSE 0,0
13.12.2018 04:00:00 4,9 -0,7 55 30 85 46 SSE 0,0
13.12.2018 03:00:00 4,9 -0,9 59 32 81 44 SSE 0,0
13.12.2018 02:00:00 4,7 -0,7 48 26 76 41 SSE 0,0
13.12.2018 01:00:00 4,9 -0,6 44 24 87 47 SSE 0,0
13.12.2018 00:00:00 5,1 -0,3 54 29 83 45 SSE 0,0
12.12.2018 23:00:00 5,1 -0,3 50 27 80 43 SE 0,0
12.12.2018 22:00:00 6,0 0,7 41 22 65 35 SSE 0,0
12.12.2018 21:00:00 6,3 1,8 42 23 74 40 SSE 0,0
12.12.2018 20:00:00 6,2 2,8 42 23 67 36 SSE 0,0
12.12.2018 19:00:00 6,6 2,9 31 17 61 33 SSE 0,0
12.12.2018 18:00:00 6,4 3,1 35 19 54 29 SSE 0,0
12.12.2018 17:00:00 6,4 3,7 31 17 52 28 SSE 0,0
12.12.2018 16:00:00 6,7 3,9 22 12 46 25 SSE 0,0
12.12.2018 15:00:00 6,9 3,6 35 19 50 27 SSE 0,0
12.12.2018 14:00:00 7,0 4,6 37 20 57 31 SSE 0,0
12.12.2018 13:00:00 6,9 4,6 34 18 50 27 SSE 0,0
12.12.2018 12:00:00 7,0 4,9 24 13 - - ESE 0,0
12.12.2018 11:00:00 7,0 5,1 24 13 - - ESE 0,0
12.12.2018 10:00:00 7,1 5,2 13 7 - - ESE 0,0
12.12.2018 09:00:00 7,2 5,1 18 10 - - ESE 0,0
12.12.2018 08:00:00 7,4 5,2 16 9 - - ESE 0,0
12.12.2018 07:00:00 7,4 5,2 15 8 - - E 0,0
12.12.2018 06:00:00 7,4 4,9 11 6 - - SE 0,0
12.12.2018 05:00:00 7,3 4,9 22 12 - - SE 0,0
12.12.2018 04:00:00 7,5 4,8 18 10 - - SE 0,0
12.12.2018 03:00:00 7,6 4,8 18 10 - - ESE 0,0
12.12.2018 02:00:00 7,8 5,6 24 13 - - SE 0,0
12.12.2018 01:00:00 7,8 5,4 16 9 - - ESE 0,0
12.12.2018 00:00:00 7,9 5,3 16 9 - - SE 0,0
11.12.2018 23:00:00 7,7 5,4 16 9 - - E 0,0
11.12.2018 22:00:00 7,8 5,6 29 16 - - SE 0,0
11.12.2018 21:00:00 7,1 5,4 26 14 - - ESE 0,0
11.12.2018 20:00:00 6,8 5,2 18 10 - - SSE 0,0
11.12.2018 19:00:00 7,1 5,1 28 15 - - SE 0,0
11.12.2018 18:00:00 6,7 4,7 18 10 - - ESE 0,0
11.12.2018 17:00:00 6,4 4,2 22 12 - - ESE 0,0
11.12.2018 16:00:00 6,1 4,7 5 3 - - SSE 0,0
11.12.2018 15:00:00 6,5 4,6 13 7 - - SSE 0,0
11.12.2018 14:00:00 6,7 4,8 15 8 - - SSE 0,0
11.12.2018 13:00:00 6,6 4,4 21 11 - - SSE 0,0
11.12.2018 12:00:00 5,5 3,5 11 6 - - SSE 0,0

tt = Température de l'air
td = dewpoint
ff = Vitesse du vent
fx = gusts
dd = Direction du vent
rr = Quantités de précipitations

stations d'obs. à proximité